createdAt,value
2023-03-02T00:01:33.780Z,32.23
2023-03-02T00:04:00.258Z,32.26
2023-03-02T00:06:26.561Z,32.30
2023-03-02T00:08:52.911Z,32.30
2023-03-02T00:11:19.281Z,32.29
2023-03-02T00:13:45.686Z,32.35
2023-03-02T00:16:12.107Z,32.36
2023-03-02T00:18:38.414Z,32.40
2023-03-02T00:21:04.823Z,32.41
2023-03-02T00:23:31.168Z,32.43
2023-03-02T00:25:57.542Z,32.43
2023-03-02T00:28:23.885Z,32.45
2023-03-02T00:30:50.269Z,32.48
2023-03-02T00:33:16.649Z,32.46
2023-03-02T00:35:43.109Z,32.50
2023-03-02T00:38:09.380Z,32.52
2023-03-02T00:40:35.760Z,32.52
2023-03-02T00:43:02.112Z,32.57
2023-03-02T00:45:28.488Z,32.59
2023-03-02T00:47:54.838Z,32.58
2023-03-02T00:50:21.221Z,32.62
2023-03-02T00:52:47.567Z,32.63
2023-03-02T00:55:13.956Z,32.65
2023-03-02T00:57:40.297Z,32.65
2023-03-02T01:00:06.684Z,32.67
2023-03-02T01:02:33.087Z,32.70
2023-03-02T01:04:59.448Z,32.72
2023-03-02T01:07:25.791Z,32.75
2023-03-02T01:09:52.246Z,32.76
2023-03-02T01:12:18.532Z,32.78
2023-03-02T01:14:44.930Z,32.75
2023-03-02T01:17:11.258Z,32.77
2023-03-02T01:19:37.636Z,32.79
2023-03-02T01:22:03.991Z,32.85
2023-03-02T01:24:30.357Z,32.85
2023-03-02T01:26:56.732Z,32.87
2023-03-02T01:29:23.092Z,32.87
2023-03-02T01:31:49.549Z,32.91
2023-03-02T01:34:15.810Z,32.91
2023-03-02T01:36:42.187Z,32.88
2023-03-02T01:39:08.531Z,32.94
2023-03-02T01:41:34.933Z,32.95
2023-03-02T01:44:02.240Z,32.97
2023-03-02T01:46:27.650Z,33.00
2023-03-02T01:48:53.981Z,33.04
2023-03-02T01:51:20.378Z,33.07
2023-03-02T01:53:46.782Z,33.05
2023-03-02T01:56:13.142Z,33.03
2023-03-02T01:58:39.515Z,33.08
2023-03-02T02:01:05.939Z,33.10
2023-03-02T02:03:32.266Z,33.10
2023-03-02T02:05:58.647Z,33.13
2023-03-02T02:08:24.986Z,33.11
2023-03-02T02:10:51.378Z,33.17
2023-03-02T02:13:17.724Z,33.17
2023-03-02T02:15:44.118Z,33.17
2023-03-02T02:18:10.513Z,33.17
2023-03-02T02:20:36.883Z,33.23
2023-03-02T02:23:03.216Z,33.25
2023-03-02T02:25:29.634Z,33.22
2023-03-02T02:27:55.977Z,33.26
2023-03-02T02:30:23.569Z,33.26
2023-03-02T02:32:48.762Z,33.30
2023-03-02T02:35:15.089Z,33.34
2023-03-02T02:37:41.429Z,33.36
2023-03-02T02:40:07.823Z,33.35
2023-03-02T02:42:34.206Z,33.39
2023-03-02T02:45:00.623Z,33.39
2023-03-02T02:47:26.968Z,33.42
2023-03-02T02:49:53.345Z,33.45
2023-03-02T02:52:19.701Z,33.44
2023-03-02T02:54:46.087Z,33.49
2023-03-02T02:57:12.426Z,33.52
2023-03-02T02:59:38.941Z,33.58
2023-03-02T03:02:05.283Z,33.50
2023-03-02T03:04:31.752Z,33.62
2023-03-02T03:06:58.014Z,33.51
2023-03-02T03:09:24.442Z,33.42
2023-03-02T03:11:50.746Z,33.39
2023-03-02T03:14:17.202Z,33.33
2023-03-02T03:16:43.548Z,33.23
2023-03-02T03:19:09.926Z,33.12
2023-03-02T03:21:36.296Z,33.04
2023-03-02T03:24:02.656Z,32.95
2023-03-02T03:26:29.000Z,32.85
2023-03-02T03:28:55.392Z,32.70
2023-03-02T03:31:21.770Z,32.57
2023-03-02T03:33:48.128Z,32.46
2023-03-02T03:36:15.438Z,32.40
2023-03-02T03:38:40.857Z,32.30
2023-03-02T03:41:07.200Z,32.27
2023-03-02T03:43:33.600Z,32.23
2023-03-02T03:46:01.237Z,32.09
2023-03-02T03:48:26.318Z,32.04
2023-03-02T03:50:52.642Z,31.98
2023-03-02T03:53:19.029Z,31.88
2023-03-02T03:55:45.374Z,31.84
2023-03-02T03:58:11.787Z,31.78
2023-03-02T04:00:38.113Z,31.74
2023-03-02T04:03:04.498Z,31.74
2023-03-02T04:05:31.733Z,31.63
2023-03-02T04:07:57.267Z,31.56
2023-03-02T04:10:23.614Z,31.46
2023-03-02T04:12:49.991Z,31.45
2023-03-02T04:15:16.362Z,31.43
2023-03-02T04:17:42.734Z,31.43
2023-03-02T04:20:09.071Z,31.31
2023-03-02T04:22:35.492Z,31.30
2023-03-02T04:25:01.855Z,31.24
2023-03-02T04:27:28.241Z,31.24
2023-03-02T04:29:54.576Z,31.17
2023-03-02T04:32:21.021Z,31.16
2023-03-02T04:34:47.324Z,31.14
2023-03-02T04:37:13.724Z,31.04
2023-03-02T04:39:40.068Z,30.96
2023-03-02T04:42:06.481Z,30.88
2023-03-02T04:44:32.825Z,30.80
2023-03-02T04:46:59.254Z,30.68
2023-03-02T04:49:25.553Z,30.69
2023-03-02T04:51:51.973Z,30.62
2023-03-02T04:54:18.322Z,30.49
2023-03-02T04:56:44.729Z,30.50
2023-03-02T04:59:11.082Z,30.48
2023-03-02T05:01:37.501Z,30.34
2023-03-02T05:04:03.879Z,30.22
2023-03-02T05:06:30.574Z,30.23
2023-03-02T05:08:56.586Z,30.19
2023-03-02T05:11:22.975Z,30.15
2023-03-02T05:13:49.322Z,30.14
2023-03-02T05:16:15.733Z,30.12
2023-03-02T05:18:42.046Z,30.01
2023-03-02T05:21:08.426Z,30.00
2023-03-02T05:23:34.800Z,29.92
2023-03-02T05:26:01.162Z,29.85
2023-03-02T05:28:27.512Z,29.78
2023-03-02T10:24:50.233Z,27.80
2023-03-02T10:27:16.611Z,27.76
2023-03-02T10:29:42.955Z,28.14
2023-03-02T10:32:09.408Z,28.24
2023-03-02T10:34:35.742Z,27.79
2023-03-02T10:37:02.078Z,28.10
2023-03-02T10:39:28.453Z,27.72
2023-03-02T10:41:54.838Z,28.19
2023-03-02T10:44:21.175Z,28.77
2023-03-02T10:46:47.545Z,27.81
2023-03-02T10:49:13.999Z,27.69
2023-03-02T10:51:40.249Z,27.95
2023-03-02T10:54:06.656Z,27.47
2023-03-02T10:56:33.241Z,27.89
2023-03-02T10:58:59.361Z,27.58
2023-03-02T11:01:25.750Z,27.48
2023-03-02T11:03:52.104Z,27.60
2023-03-02T11:06:18.569Z,27.62
2023-03-02T11:08:44.963Z,27.54
2023-03-02T11:11:11.291Z,27.63
2023-03-02T11:13:37.665Z,27.72
2023-03-02T11:16:04.072Z,27.76
2023-03-02T11:18:30.450Z,27.81
2023-03-02T11:20:56.798Z,27.73
2023-03-02T11:23:23.184Z,27.79
2023-03-02T11:25:49.601Z,27.65
2023-03-02T11:28:16.050Z,27.58
2023-03-02T11:30:42.401Z,27.84
2023-03-02T11:33:08.841Z,27.77
2023-03-02T11:35:35.214Z,27.75
2023-03-02T11:38:01.565Z,27.78
2023-03-02T11:40:27.904Z,27.79
2023-03-02T11:42:54.301Z,27.79
2023-03-02T11:45:20.645Z,27.79
2023-03-02T11:47:51.460Z,27.74
2023-03-02T11:50:13.401Z,27.83
2023-03-02T11:52:39.785Z,27.75
2023-03-02T11:55:06.121Z,27.73
2023-03-02T11:57:32.545Z,27.66
2023-03-02T11:59:58.891Z,27.62
2023-03-02T12:02:25.286Z,27.76
2023-03-02T12:04:51.609Z,27.99
2023-03-02T12:07:18.065Z,27.87
2023-03-02T12:09:44.411Z,27.95
2023-03-02T12:12:10.830Z,27.79
2023-03-02T12:14:37.172Z,27.78
2023-03-02T12:17:03.656Z,27.77
2023-03-02T12:19:30.008Z,27.94
2023-03-02T12:21:56.422Z,27.95
2023-03-02T12:24:22.796Z,27.95
2023-03-02T12:26:49.138Z,27.93
2023-03-02T12:29:15.530Z,27.94
2023-03-02T12:31:41.908Z,28.01
2023-03-02T12:34:08.248Z,27.95
2023-03-02T12:36:34.830Z,28.06
2023-03-02T12:39:00.981Z,28.05
2023-03-02T12:41:27.336Z,28.05
2023-03-02T12:43:53.694Z,28.03
2023-03-02T12:46:20.142Z,27.97
2023-03-02T12:48:46.822Z,27.90
2023-03-02T12:51:14.515Z,28.05
2023-03-02T12:53:39.142Z,27.56
2023-03-02T12:56:05.574Z,27.68
2023-03-02T12:58:31.875Z,27.87
2023-03-02T13:00:58.298Z,27.58
2023-03-02T13:03:24.611Z,27.49
2023-03-02T13:05:50.991Z,27.67
2023-03-02T13:08:17.407Z,27.56
2023-03-02T13:10:43.794Z,27.66
2023-03-02T13:13:10.124Z,27.67
2023-03-02T13:15:36.480Z,27.66
2023-03-02T13:18:02.913Z,27.72
2023-03-02T13:20:29.286Z,27.89
2023-03-02T13:22:55.623Z,27.96
2023-03-02T13:25:22.029Z,28.05
2023-03-02T13:27:48.407Z,27.92
2023-03-02T13:30:14.780Z,28.15
2023-03-02T13:32:41.103Z,28.16
2023-03-02T13:35:07.475Z,28.13
2023-03-02T13:37:33.865Z,28.21
2023-03-02T13:40:00.245Z,28.02
2023-03-02T13:42:26.577Z,28.56
2023-03-02T13:44:53.021Z,28.33
2023-03-02T13:47:19.336Z,28.18
2023-03-02T13:49:45.747Z,28.11
2023-03-02T13:52:12.360Z,28.05
2023-03-02T13:54:38.717Z,28.33
2023-03-02T13:57:05.041Z,28.34
2023-03-02T13:59:31.405Z,28.34
2023-03-02T14:01:57.751Z,28.09
2023-03-02T14:04:24.307Z,28.43
2023-03-02T14:06:50.553Z,28.39
2023-03-02T14:09:16.906Z,28.35
2023-03-02T14:11:43.248Z,28.37
2023-03-02T14:14:09.633Z,28.40
2023-03-02T14:16:35.988Z,28.47
2023-03-02T14:19:02.376Z,28.41
2023-03-02T14:21:28.759Z,28.49
2023-03-02T14:23:55.135Z,28.44
2023-03-02T14:26:21.474Z,28.63
2023-03-02T14:28:53.647Z,28.43
2023-03-02T14:31:14.241Z,28.37
2023-03-02T14:33:40.617Z,28.63
2023-03-02T14:36:06.954Z,28.73
2023-03-02T14:38:33.330Z,28.50
2023-03-02T14:40:59.694Z,28.66
2023-03-02T14:43:26.043Z,28.63
2023-03-02T14:45:52.440Z,28.78
2023-03-02T14:48:18.827Z,28.79
2023-03-02T14:50:45.151Z,28.62
2023-03-02T14:53:11.576Z,28.60
2023-03-02T14:55:37.931Z,28.45
2023-03-02T14:58:04.303Z,28.24
2023-03-02T15:00:30.641Z,28.08
2023-03-02T15:02:57.064Z,27.99
2023-03-02T15:05:23.391Z,28.09
2023-03-02T15:07:49.775Z,28.08
2023-03-02T15:10:16.105Z,28.34
2023-03-02T15:12:42.499Z,28.20
2023-03-02T15:15:08.833Z,28.10
2023-03-02T15:17:35.216Z,28.11
2023-03-02T15:20:01.574Z,28.37
2023-03-02T15:22:27.943Z,28.19
2023-03-02T15:24:54.276Z,28.18
2023-03-02T15:27:20.660Z,28.31
2023-03-02T15:29:47.017Z,28.26
2023-03-02T15:32:13.408Z,28.21
2023-03-02T15:34:39.735Z,28.23
2023-03-02T15:37:06.179Z,28.12
2023-03-02T15:39:32.570Z,28.34
2023-03-02T15:41:59.090Z,28.26
2023-03-02T15:44:25.433Z,28.23
2023-03-02T15:46:51.951Z,28.16
2023-03-02T15:49:18.170Z,28.08
2023-03-02T15:51:44.553Z,28.02
2023-03-02T15:54:10.899Z,28.05
2023-03-02T15:56:43.991Z,28.25
2023-03-02T15:59:03.611Z,28.28
2023-03-02T16:01:30.064Z,28.25
2023-03-02T16:03:56.404Z,28.37
2023-03-02T16:06:22.787Z,28.37
2023-03-02T16:08:49.126Z,28.37
2023-03-02T16:11:17.739Z,28.34
2023-03-02T16:13:41.841Z,28.30
2023-03-02T16:16:08.298Z,28.27
2023-03-02T16:18:34.567Z,28.19
2023-03-02T16:21:00.946Z,28.27
2023-03-02T16:23:27.295Z,28.04
2023-03-02T16:25:53.709Z,28.10
2023-03-02T16:28:20.050Z,28.02
2023-03-02T16:30:46.427Z,27.94
2023-03-02T16:35:55.042Z,27.94
2023-03-02T16:38:21.460Z,28.13
2023-03-02T16:40:47.810Z,27.98
2023-03-02T16:43:14.187Z,27.93
2023-03-02T16:45:41.684Z,27.95
2023-03-02T16:48:06.924Z,28.00
2023-03-02T16:50:33.280Z,28.11
2023-03-02T16:52:59.714Z,28.00
2023-03-02T16:55:26.090Z,27.99
2023-03-02T16:57:52.456Z,28.00
2023-03-02T17:00:18.787Z,27.87
2023-03-02T17:02:45.172Z,27.86
2023-03-02T17:05:11.517Z,27.79
2023-03-02T17:07:37.902Z,27.73
2023-03-02T17:10:04.244Z,27.77
2023-03-02T17:12:30.640Z,27.78
2023-03-02T17:17:42.289Z,27.73
2023-03-02T17:20:08.636Z,27.72
2023-03-02T17:22:35.040Z,27.69
2023-03-02T17:25:02.903Z,27.68
2023-03-02T17:27:27.763Z,27.66
2023-03-02T17:29:54.104Z,27.61
2023-03-02T17:32:20.586Z,27.65
2023-03-02T17:34:46.833Z,27.63
2023-03-02T17:37:13.230Z,27.66
2023-03-02T17:39:39.574Z,27.62
2023-03-02T17:42:05.984Z,27.63
2023-03-02T17:44:32.313Z,27.57
2023-03-02T17:46:58.747Z,27.60
2023-03-02T17:49:25.094Z,27.57
2023-03-02T17:51:51.490Z,27.50
2023-03-02T17:54:17.840Z,27.50
2023-03-02T17:56:44.350Z,27.56
2023-03-02T17:59:10.770Z,27.51
2023-03-02T18:01:37.160Z,27.51
2023-03-02T18:04:03.518Z,27.53
2023-03-02T18:06:29.878Z,27.54
2023-03-02T18:08:56.228Z,27.53
2023-03-02T18:11:22.618Z,27.47
2023-03-02T18:13:48.968Z,27.45
2023-03-02T18:16:15.455Z,27.50
2023-03-02T18:18:41.704Z,27.61
2023-03-02T18:21:08.123Z,27.76
2023-03-02T18:23:34.461Z,27.88
2023-03-02T18:26:00.832Z,28.03
2023-03-02T18:28:27.233Z,28.02
2023-03-02T18:30:53.594Z,27.92
2023-03-02T18:33:19.980Z,28.06
2023-03-02T18:35:46.355Z,27.99
2023-03-02T18:38:12.704Z,28.08
2023-03-02T18:40:39.088Z,28.10
2023-03-02T18:43:05.441Z,28.02
2023-03-02T18:45:31.829Z,28.15
2023-03-02T18:47:58.168Z,28.10
2023-03-02T18:50:24.601Z,28.07
2023-03-02T18:52:50.964Z,28.03
2023-03-02T18:55:17.345Z,28.04
2023-03-02T18:57:43.729Z,27.99
2023-03-02T19:00:10.115Z,28.05
2023-03-02T19:02:36.457Z,28.16
2023-03-02T19:05:02.928Z,28.21
2023-03-02T19:07:29.267Z,28.21
2023-03-02T19:09:57.003Z,28.34
2023-03-02T19:12:22.007Z,28.44
2023-03-02T19:14:48.412Z,28.54
2023-03-02T19:17:14.755Z,28.60
2023-03-02T19:19:43.502Z,28.82
2023-03-02T19:22:07.487Z,28.86
2023-03-02T19:24:33.910Z,28.95
2023-03-02T19:27:00.270Z,29.05
2023-03-02T19:29:26.660Z,29.17
2023-03-02T19:31:53.080Z,29.21
2023-03-02T19:34:19.384Z,29.29
2023-03-02T19:36:45.720Z,29.42
2023-03-02T19:39:12.125Z,29.40
2023-03-02T19:41:38.466Z,29.44
2023-03-02T19:44:04.846Z,29.48
2023-03-02T19:46:31.181Z,29.46
2023-03-02T19:48:57.583Z,29.60
2023-03-02T19:51:23.927Z,29.58
2023-03-02T19:53:50.315Z,29.72
2023-03-02T19:56:16.639Z,29.68
2023-03-02T19:58:43.029Z,29.71
2023-03-02T20:01:10.997Z,29.75
2023-03-02T20:03:35.795Z,29.77
2023-03-02T20:06:02.146Z,29.77
2023-03-02T20:08:28.592Z,29.78
2023-03-02T20:10:54.893Z,29.80
2023-03-02T20:13:21.291Z,29.87
2023-03-02T20:15:47.644Z,29.95
2023-03-02T20:18:14.025Z,29.95
2023-03-02T20:20:40.348Z,29.98
2023-03-02T20:23:06.746Z,29.98
2023-03-02T20:25:33.097Z,30.03
2023-03-02T20:27:59.492Z,30.08
2023-03-02T20:30:25.839Z,30.10
2023-03-02T20:32:52.243Z,30.12
2023-03-02T20:35:18.615Z,30.14
2023-03-02T20:37:44.999Z,30.18
2023-03-02T20:40:11.337Z,30.21
2023-03-02T20:42:37.731Z,30.22
2023-03-02T20:45:04.145Z,30.23
2023-03-02T20:47:30.479Z,30.25
2023-03-02T20:49:56.870Z,30.23
2023-03-02T20:52:23.233Z,30.27
2023-03-02T20:54:49.627Z,30.31
2023-03-02T20:57:15.985Z,30.34
2023-03-02T20:59:42.375Z,30.39
2023-03-02T21:02:08.704Z,30.36
2023-03-02T21:04:35.101Z,30.34
2023-03-02T21:07:01.462Z,30.38
2023-03-02T21:09:28.939Z,30.48
2023-03-02T21:11:55.284Z,30.53
2023-03-02T21:14:21.700Z,30.61
2023-03-02T21:16:48.066Z,30.72
2023-03-02T21:19:14.469Z,30.76
2023-03-02T21:21:42.227Z,30.79
2023-03-02T21:24:07.183Z,30.85
2023-03-02T21:26:33.541Z,30.90
2023-03-02T21:28:59.932Z,30.96
2023-03-02T21:31:26.330Z,30.96
2023-03-02T21:33:52.678Z,31.00
2023-03-02T21:36:19.024Z,30.98
2023-03-02T21:38:45.420Z,31.07
2023-03-02T21:41:11.794Z,31.11
2023-03-02T21:43:38.151Z,31.18
2023-03-02T21:46:04.520Z,31.21
2023-03-02T21:48:30.895Z,31.22
2023-03-02T21:50:57.259Z,31.20
2023-03-02T21:53:25.348Z,31.21
2023-03-02T21:55:50.030Z,31.31
2023-03-02T21:58:16.437Z,31.30
2023-03-02T22:00:42.812Z,31.35
2023-03-02T22:03:09.238Z,31.32
2023-03-02T22:05:35.594Z,31.36
2023-03-02T22:08:01.979Z,31.41
2023-03-02T22:10:28.348Z,31.46
2023-03-02T22:12:54.734Z,31.46
2023-03-02T22:15:21.081Z,31.46
2023-03-02T22:17:47.487Z,31.47
2023-03-02T22:20:13.836Z,31.53
2023-03-02T22:22:40.229Z,31.61
2023-03-02T22:25:06.573Z,31.63
2023-03-02T22:27:32.976Z,31.62
2023-03-02T22:30:00.292Z,31.69
2023-03-02T22:32:25.808Z,31.70
2023-03-02T22:34:52.176Z,31.75
2023-03-02T22:37:18.543Z,31.79
2023-03-02T22:39:44.943Z,31.82
2023-03-02T22:42:11.328Z,31.80
2023-03-02T22:44:37.694Z,31.82
2023-03-02T22:47:04.067Z,31.83
2023-03-02T22:49:30.422Z,31.85
2023-03-02T22:51:56.873Z,31.91
2023-03-02T22:54:23.208Z,31.97
2023-03-02T22:56:49.604Z,31.98
2023-03-02T22:59:15.950Z,32.04
2023-03-02T23:01:42.385Z,32.04
2023-03-02T23:04:08.809Z,32.07
2023-03-02T23:06:35.127Z,32.08
2023-03-02T23:09:01.460Z,32.14
2023-03-02T23:11:27.884Z,32.17
2023-03-02T23:13:54.237Z,32.19
2023-03-02T23:16:20.643Z,32.24
2023-03-02T23:18:46.992Z,32.25
2023-03-02T23:21:13.388Z,32.27
2023-03-02T23:23:39.743Z,32.29
2023-03-02T23:26:06.133Z,32.28
2023-03-02T23:28:32.476Z,32.36
2023-03-02T23:30:58.879Z,32.35
2023-03-02T23:33:25.236Z,32.36
2023-03-02T23:35:51.637Z,32.36
2023-03-02T23:38:18.012Z,32.35
2023-03-02T23:40:44.400Z,32.44
2023-03-02T23:43:10.763Z,32.46
2023-03-02T23:45:37.152Z,32.46
2023-03-02T23:48:03.488Z,32.52
2023-03-02T23:50:29.871Z,32.53
2023-03-02T23:52:56.217Z,32.54
2023-03-02T23:55:22.614Z,32.59
2023-03-02T23:57:48.956Z,32.64
